sensor_id;sensor_type;location;lat;lon;timestamp;P1;durP1;ratioP1;P2;durP2;ratioP2
27899;SDS011;15243;50.726;7.080;2023-04-19T00:02:13;7.57;;;5.35;;
27899;SDS011;15243;50.726;7.080;2023-04-19T00:04:42;7.63;;;5.22;;
27899;SDS011;15243;50.726;7.080;2023-04-19T00:07:10;7.63;;;5.00;;
27899;SDS011;15243;50.726;7.080;2023-04-19T00:09:37;10.20;;;5.10;;
27899;SDS011;15243;50.726;7.080;2023-04-19T00:12:04;7.55;;;4.85;;
27899;SDS011;15243;50.726;7.080;2023-04-19T00:14:32;9.02;;;5.40;;
27899;SDS011;15243;50.726;7.080;2023-04-19T00:16:59;7.93;;;5.20;;
27899;SDS011;15243;50.726;7.080;2023-04-19T00:19:26;7.25;;;4.80;;
27899;SDS011;15243;50.726;7.080;2023-04-19T00:21:53;8.05;;;5.20;;
27899;SDS011;15243;50.726;7.080;2023-04-19T00:24:20;6.07;;;4.28;;
27899;SDS011;15243;50.726;7.080;2023-04-19T00:26:47;7.15;;;4.93;;
27899;SDS011;15243;50.726;7.080;2023-04-19T00:29:14;10.00;;;5.65;;
27899;SDS011;15243;50.726;7.080;2023-04-19T00:31:41;13.13;;;5.72;;
27899;SDS011;15243;50.726;7.080;2023-04-19T00:34:11;9.20;;;5.63;;
27899;SDS011;15243;50.726;7.080;2023-04-19T00:36:39;8.70;;;5.38;;
27899;SDS011;15243;50.726;7.080;2023-04-19T00:39:06;8.18;;;4.82;;
27899;SDS011;15243;50.726;7.080;2023-04-19T00:41:33;7.70;;;5.50;;
27899;SDS011;15243;50.726;7.080;2023-04-19T00:44:00;7.25;;;5.32;;
27899;SDS011;15243;50.726;7.080;2023-04-19T00:46:27;11.05;;;6.28;;
27899;SDS011;15243;50.726;7.080;2023-04-19T00:48:54;8.85;;;5.57;;
27899;SDS011;15243;50.726;7.080;2023-04-19T00:51:21;8.13;;;5.68;;
27899;SDS011;15243;50.726;7.080;2023-04-19T00:53:48;8.02;;;5.60;;
27899;SDS011;15243;50.726;7.080;2023-04-19T00:56:15;7.70;;;5.60;;
27899;SDS011;15243;50.726;7.080;2023-04-19T00:58:44;9.38;;;6.18;;
27899;SDS011;15243;50.726;7.080;2023-04-19T01:01:11;8.75;;;5.65;;
27899;SDS011;15243;50.726;7.080;2023-04-19T01:03:39;9.70;;;5.43;;
27899;SDS011;15243;50.726;7.080;2023-04-19T01:06:06;10.70;;;5.80;;
27899;SDS011;15243;50.726;7.080;2023-04-19T01:08:33;8.25;;;5.88;;
27899;SDS011;15243;50.726;7.080;2023-04-19T01:11:00;9.95;;;5.80;;
27899;SDS011;15243;50.726;7.080;2023-04-19T01:13:27;8.48;;;5.75;;
27899;SDS011;15243;50.726;7.080;2023-04-19T01:15:54;8.43;;;5.70;;
27899;SDS011;15243;50.726;7.080;2023-04-19T01:18:23;9.80;;;5.88;;
27899;SDS011;15243;50.726;7.080;2023-04-19T01:20:51;8.75;;;5.70;;
27899;SDS011;15243;50.726;7.080;2023-04-19T01:23:18;9.52;;;6.00;;
27899;SDS011;15243;50.726;7.080;2023-04-19T01:25:45;8.80;;;5.63;;
27899;SDS011;15243;50.726;7.080;2023-04-19T01:28:13;10.63;;;7.18;;
27899;SDS011;15243;50.726;7.080;2023-04-19T01:30:40;8.98;;;5.90;;
27899;SDS011;15243;50.726;7.080;2023-04-19T01:33:08;9.10;;;6.40;;
27899;SDS011;15243;50.726;7.080;2023-04-19T01:35:34;8.80;;;6.15;;
27899;SDS011;15243;50.726;7.080;2023-04-19T01:38:01;11.07;;;6.97;;
27899;SDS011;15243;50.726;7.080;2023-04-19T01:40:28;9.75;;;6.32;;
27899;SDS011;15243;50.726;7.080;2023-04-19T01:42:56;12.27;;;7.18;;
27899;SDS011;15243;50.726;7.080;2023-04-19T01:45:24;10.05;;;7.00;;
27899;SDS011;15243;50.726;7.080;2023-04-19T01:47:50;11.73;;;7.30;;
27899;SDS011;15243;50.726;7.080;2023-04-19T01:50:18;11.15;;;6.95;;
27899;SDS011;15243;50.726;7.080;2023-04-19T01:52:45;9.50;;;6.90;;
27899;SDS011;15243;50.726;7.080;2023-04-19T01:55:12;11.23;;;7.28;;
27899;SDS011;15243;50.726;7.080;2023-04-19T01:57:39;12.63;;;7.07;;
27899;SDS011;15243;50.726;7.080;2023-04-19T02:00:06;10.98;;;6.72;;
27899;SDS011;15243;50.726;7.080;2023-04-19T02:02:35;10.25;;;6.75;;
27899;SDS011;15243;50.726;7.080;2023-04-19T02:05:06;11.95;;;7.40;;
27899;SDS011;15243;50.726;7.080;2023-04-19T02:07:33;9.90;;;6.97;;
27899;SDS011;15243;50.726;7.080;2023-04-19T02:10:00;10.48;;;6.90;;
27899;SDS011;15243;50.726;7.080;2023-04-19T02:12:28;13.25;;;8.00;;
27899;SDS011;15243;50.726;7.080;2023-04-19T02:14:56;11.20;;;7.22;;
27899;SDS011;15243;50.726;7.080;2023-04-19T02:17:24;12.30;;;7.80;;
27899;SDS011;15243;50.726;7.080;2023-04-19T02:19:51;10.50;;;7.50;;
27899;SDS011;15243;50.726;7.080;2023-04-19T02:22:18;10.07;;;7.43;;
27899;SDS011;15243;50.726;7.080;2023-04-19T02:24:46;12.70;;;7.30;;
27899;SDS011;15243;50.726;7.080;2023-04-19T02:27:15;11.13;;;8.25;;
27899;SDS011;15243;50.726;7.080;2023-04-19T02:29:42;10.40;;;7.40;;
27899;SDS011;15243;50.726;7.080;2023-04-19T02:32:12;10.60;;;7.95;;
27899;SDS011;15243;50.726;7.080;2023-04-19T02:34:39;12.13;;;7.47;;
27899;SDS011;15243;50.726;7.080;2023-04-19T02:37:06;10.38;;;7.13;;
27899;SDS011;15243;50.726;7.080;2023-04-19T02:39:33;11.63;;;7.57;;
27899;SDS011;15243;50.726;7.080;2023-04-19T02:42:01;11.77;;;7.82;;
27899;SDS011;15243;50.726;7.080;2023-04-19T02:44:28;13.73;;;8.90;;
27899;SDS011;15243;50.726;7.080;2023-04-19T02:46:55;10.43;;;7.40;;
27899;SDS011;15243;50.726;7.080;2023-04-19T02:49:23;12.85;;;8.73;;
27899;SDS011;15243;50.726;7.080;2023-04-19T02:51:50;11.35;;;7.22;;
27899;SDS011;15243;50.726;7.080;2023-04-19T02:54:18;11.57;;;7.45;;
27899;SDS011;15243;50.726;7.080;2023-04-19T02:56:45;12.68;;;8.30;;
27899;SDS011;15243;50.726;7.080;2023-04-19T02:59:12;14.55;;;8.52;;
27899;SDS011;15243;50.726;7.080;2023-04-19T03:01:39;12.35;;;7.93;;
27899;SDS011;15243;50.726;7.080;2023-04-19T03:04:06;12.15;;;8.15;;
27899;SDS011;15243;50.726;7.080;2023-04-19T03:06:33;15.02;;;9.23;;
27899;SDS011;15243;50.726;7.080;2023-04-19T03:09:00;12.68;;;8.10;;
27899;SDS011;15243;50.726;7.080;2023-04-19T03:11:26;16.15;;;9.43;;
27899;SDS011;15243;50.726;7.080;2023-04-19T03:13:53;18.80;;;9.70;;
27899;SDS011;15243;50.726;7.080;2023-04-19T03:16:20;15.55;;;9.55;;
27899;SDS011;15243;50.726;7.080;2023-04-19T03:18:47;13.25;;;9.32;;
27899;SDS011;15243;50.726;7.080;2023-04-19T03:21:14;15.60;;;9.63;;
27899;SDS011;15243;50.726;7.080;2023-04-19T03:23:41;14.52;;;9.43;;
27899;SDS011;15243;50.726;7.080;2023-04-19T03:26:09;18.05;;;9.98;;
27899;SDS011;15243;50.726;7.080;2023-04-19T03:28:35;13.85;;;9.38;;
27899;SDS011;15243;50.726;7.080;2023-04-19T03:31:02;15.90;;;9.07;;
27899;SDS011;15243;50.726;7.080;2023-04-19T03:33:29;13.95;;;8.85;;
27899;SDS011;15243;50.726;7.080;2023-04-19T03:35:56;15.50;;;9.85;;
27899;SDS011;15243;50.726;7.080;2023-04-19T03:38:23;15.00;;;9.02;;
27899;SDS011;15243;50.726;7.080;2023-04-19T03:40:50;14.18;;;9.10;;
27899;SDS011;15243;50.726;7.080;2023-04-19T03:43:17;11.93;;;8.27;;
27899;SDS011;15243;50.726;7.080;2023-04-19T03:45:45;13.65;;;9.15;;
27899;SDS011;15243;50.726;7.080;2023-04-19T03:48:12;13.48;;;9.85;;
27899;SDS011;15243;50.726;7.080;2023-04-19T03:50:39;14.57;;;9.05;;
27899;SDS011;15243;50.726;7.080;2023-04-19T03:53:06;13.50;;;9.10;;
27899;SDS011;15243;50.726;7.080;2023-04-19T03:55:33;18.45;;;9.07;;
27899;SDS011;15243;50.726;7.080;2023-04-19T03:58:00;14.32;;;9.85;;
27899;SDS011;15243;50.726;7.080;2023-04-19T04:00:27;19.73;;;11.05;;
27899;SDS011;15243;50.726;7.080;2023-04-19T04:02:54;16.40;;;10.60;;
27899;SDS011;15243;50.726;7.080;2023-04-19T04:05:21;17.77;;;9.82;;
27899;SDS011;15243;50.726;7.080;2023-04-19T04:07:48;16.67;;;10.90;;
27899;SDS011;15243;50.726;7.080;2023-04-19T04:10:15;15.27;;;10.00;;
27899;SDS011;15243;50.726;7.080;2023-04-19T04:12:43;15.43;;;10.55;;
27899;SDS011;15243;50.726;7.080;2023-04-19T04:15:10;16.55;;;11.00;;
27899;SDS011;15243;50.726;7.080;2023-04-19T04:17:37;13.20;;;9.75;;
27899;SDS011;15243;50.726;7.080;2023-04-19T04:20:06;13.55;;;9.75;;
27899;SDS011;15243;50.726;7.080;2023-04-19T04:22:34;14.38;;;10.15;;
27899;SDS011;15243;50.726;7.080;2023-04-19T04:25:01;14.88;;;10.13;;
27899;SDS011;15243;50.726;7.080;2023-04-19T04:27:28;13.25;;;9.27;;
27899;SDS011;15243;50.726;7.080;2023-04-19T04:29:55;17.38;;;10.68;;
27899;SDS011;15243;50.726;7.080;2023-04-19T04:32:22;17.13;;;10.55;;
27899;SDS011;15243;50.726;7.080;2023-04-19T04:34:49;15.50;;;10.77;;
27899;SDS011;15243;50.726;7.080;2023-04-19T04:37:16;17.60;;;10.52;;
27899;SDS011;15243;50.726;7.080;2023-04-19T04:39:43;16.70;;;10.45;;
27899;SDS011;15243;50.726;7.080;2023-04-19T04:42:10;18.95;;;10.02;;
27899;SDS011;15243;50.726;7.080;2023-04-19T04:44:37;14.07;;;10.20;;
27899;SDS011;15243;50.726;7.080;2023-04-19T04:47:04;20.52;;;11.20;;
27899;SDS011;15243;50.726;7.080;2023-04-19T04:49:31;18.60;;;11.30;;
27899;SDS011;15243;50.726;7.080;2023-04-19T04:51:58;16.73;;;10.68;;
27899;SDS011;15243;50.726;7.080;2023-04-19T04:54:25;18.27;;;10.43;;
27899;SDS011;15243;50.726;7.080;2023-04-19T04:56:53;15.48;;;10.85;;
27899;SDS011;15243;50.726;7.080;2023-04-19T04:59:20;21.48;;;10.68;;
27899;SDS011;15243;50.726;7.080;2023-04-19T05:01:46;20.58;;;11.65;;
27899;SDS011;15243;50.726;7.080;2023-04-19T05:04:14;16.08;;;11.25;;
27899;SDS011;15243;50.726;7.080;2023-04-19T05:06:42;18.92;;;10.85;;
27899;SDS011;15243;50.726;7.080;2023-04-19T05:09:09;17.23;;;11.88;;
27899;SDS011;15243;50.726;7.080;2023-04-19T05:11:50;19.17;;;12.18;;
27899;SDS011;15243;50.726;7.080;2023-04-19T05:14:17;17.10;;;11.18;;
27899;SDS011;15243;50.726;7.080;2023-04-19T05:16:45;18.25;;;11.50;;
27899;SDS011;15243;50.726;7.080;2023-04-19T05:19:12;19.88;;;11.82;;
27899;SDS011;15243;50.726;7.080;2023-04-19T05:21:39;19.75;;;11.20;;
27899;SDS011;15243;50.726;7.080;2023-04-19T05:24:06;18.63;;;12.32;;
27899;SDS011;15243;50.726;7.080;2023-04-19T05:26:35;16.58;;;10.13;;
27899;SDS011;15243;50.726;7.080;2023-04-19T05:29:03;17.05;;;10.45;;
27899;SDS011;15243;50.726;7.080;2023-04-19T05:31:30;19.65;;;11.68;;
27899;SDS011;15243;50.726;7.080;2023-04-19T05:33:57;16.25;;;10.68;;
27899;SDS011;15243;50.726;7.080;2023-04-19T05:36:25;18.50;;;11.32;;
27899;SDS011;15243;50.726;7.080;2023-04-19T05:38:56;13.77;;;9.85;;
27899;SDS011;15243;50.726;7.080;2023-04-19T05:41:24;20.80;;;11.55;;
27899;SDS011;15243;50.726;7.080;2023-04-19T05:43:51;16.23;;;11.02;;
27899;SDS011;15243;50.726;7.080;2023-04-19T05:46:18;14.32;;;10.27;;
27899;SDS011;15243;50.726;7.080;2023-04-19T05:48:45;15.75;;;11.27;;
27899;SDS011;15243;50.726;7.080;2023-04-19T05:51:12;18.48;;;10.18;;
27899;SDS011;15243;50.726;7.080;2023-04-19T05:53:39;16.73;;;11.43;;
27899;SDS011;15243;50.726;7.080;2023-04-19T05:56:06;18.83;;;12.35;;
27899;SDS011;15243;50.726;7.080;2023-04-19T05:58:34;17.33;;;11.88;;
27899;SDS011;15243;50.726;7.080;2023-04-19T06:01:02;16.85;;;11.27;;
27899;SDS011;15243;50.726;7.080;2023-04-19T06:03:29;18.40;;;12.05;;
27899;SDS011;15243;50.726;7.080;2023-04-19T06:05:58;16.80;;;11.55;;
27899;SDS011;15243;50.726;7.080;2023-04-19T06:08:25;18.35;;;10.82;;
27899;SDS011;15243;50.726;7.080;2023-04-19T06:10:52;19.30;;;11.18;;
27899;SDS011;15243;50.726;7.080;2023-04-19T06:13:30;18.42;;;12.20;;
27899;SDS011;15243;50.726;7.080;2023-04-19T06:15:58;19.67;;;11.60;;
27899;SDS011;15243;50.726;7.080;2023-04-19T06:18:25;21.10;;;11.95;;
27899;SDS011;15243;50.726;7.080;2023-04-19T06:20:52;21.48;;;12.50;;
27899;SDS011;15243;50.726;7.080;2023-04-19T06:23:19;21.73;;;10.93;;
27899;SDS011;15243;50.726;7.080;2023-04-19T06:25:46;16.83;;;10.75;;
27899;SDS011;15243;50.726;7.080;2023-04-19T06:28:16;19.10;;;11.73;;
27899;SDS011;15243;50.726;7.080;2023-04-19T06:30:43;19.50;;;12.05;;
27899;SDS011;15243;50.726;7.080;2023-04-19T06:33:10;20.55;;;11.98;;
27899;SDS011;15243;50.726;7.080;2023-04-19T06:35:37;18.65;;;12.15;;
27899;SDS011;15243;50.726;7.080;2023-04-19T06:38:05;17.30;;;11.68;;
27899;SDS011;15243;50.726;7.080;2023-04-19T06:40:32;15.60;;;11.60;;
27899;SDS011;15243;50.726;7.080;2023-04-19T06:43:01;17.08;;;11.30;;
27899;SDS011;15243;50.726;7.080;2023-04-19T06:45:31;16.92;;;11.35;;
27899;SDS011;15243;50.726;7.080;2023-04-19T06:47:58;20.52;;;11.95;;
27899;SDS011;15243;50.726;7.080;2023-04-19T06:50:24;18.67;;;10.75;;
27899;SDS011;15243;50.726;7.080;2023-04-19T06:52:52;19.85;;;11.98;;
27899;SDS011;15243;50.726;7.080;2023-04-19T06:55:19;20.65;;;11.10;;
27899;SDS011;15243;50.726;7.080;2023-04-19T06:57:46;19.15;;;11.10;;
27899;SDS011;15243;50.726;7.080;2023-04-19T07:00:16;19.52;;;11.60;;
27899;SDS011;15243;50.726;7.080;2023-04-19T07:02:43;18.13;;;11.55;;
27899;SDS011;15243;50.726;7.080;2023-04-19T07:05:10;15.73;;;10.77;;
27899;SDS011;15243;50.726;7.080;2023-04-19T07:07:38;14.05;;;10.32;;
27899;SDS011;15243;50.726;7.080;2023-04-19T07:10:07;16.77;;;10.98;;
27899;SDS011;15243;50.726;7.080;2023-04-19T07:12:34;17.50;;;10.52;;
27899;SDS011;15243;50.726;7.080;2023-04-19T07:15:01;19.25;;;11.85;;
27899;SDS011;15243;50.726;7.080;2023-04-19T07:17:28;16.48;;;10.70;;
27899;SDS011;15243;50.726;7.080;2023-04-19T07:19:55;15.73;;;10.20;;
27899;SDS011;15243;50.726;7.080;2023-04-19T07:22:22;16.35;;;10.52;;
27899;SDS011;15243;50.726;7.080;2023-04-19T07:24:49;15.25;;;10.23;;
27899;SDS011;15243;50.726;7.080;2023-04-19T07:27:17;19.23;;;10.82;;
27899;SDS011;15243;50.726;7.080;2023-04-19T07:29:44;17.77;;;11.00;;
27899;SDS011;15243;50.726;7.080;2023-04-19T07:38:35;13.05;;;9.43;;
27899;SDS011;15243;50.726;7.080;2023-04-19T07:41:02;18.35;;;11.05;;
27899;SDS011;15243;50.726;7.080;2023-04-19T07:43:30;15.27;;;10.18;;
27899;SDS011;15243;50.726;7.080;2023-04-19T07:45:57;16.02;;;10.38;;
27899;SDS011;15243;50.726;7.080;2023-04-19T07:48:24;17.52;;;10.43;;
27899;SDS011;15243;50.726;7.080;2023-04-19T07:50:51;16.15;;;10.60;;
27899;SDS011;15243;50.726;7.080;2023-04-19T07:53:19;15.80;;;10.52;;
27899;SDS011;15243;50.726;7.080;2023-04-19T07:55:45;17.27;;;10.45;;
27899;SDS011;15243;50.726;7.080;2023-04-19T07:58:12;13.90;;;10.13;;
27899;SDS011;15243;50.726;7.080;2023-04-19T08:00:40;15.48;;;10.35;;
27899;SDS011;15243;50.726;7.080;2023-04-19T08:03:07;16.48;;;9.35;;
27899;SDS011;15243;50.726;7.080;2023-04-19T08:05:34;19.05;;;10.65;;
27899;SDS011;15243;50.726;7.080;2023-04-19T08:08:02;15.35;;;9.82;;
27899;SDS011;15243;50.726;7.080;2023-04-19T08:10:29;20.13;;;10.38;;
27899;SDS011;15243;50.726;7.080;2023-04-19T08:12:58;15.00;;;11.10;;
27899;SDS011;15243;50.726;7.080;2023-04-19T08:15:32;15.15;;;10.95;;
27899;SDS011;15243;50.726;7.080;2023-04-19T08:18:19;18.30;;;10.68;;
27899;SDS011;15243;50.726;7.080;2023-04-19T08:20:46;16.77;;;10.40;;
27899;SDS011;15243;50.726;7.080;2023-04-19T08:23:14;15.27;;;10.32;;
27899;SDS011;15243;50.726;7.080;2023-04-19T08:25:52;21.73;;;11.15;;
27899;SDS011;15243;50.726;7.080;2023-04-19T08:28:20;13.45;;;10.30;;
27899;SDS011;15243;50.726;7.080;2023-04-19T08:30:46;13.95;;;10.00;;
27899;SDS011;15243;50.726;7.080;2023-04-19T08:33:14;17.67;;;10.07;;
27899;SDS011;15243;50.726;7.080;2023-04-19T08:35:41;18.13;;;9.98;;
27899;SDS011;15243;50.726;7.080;2023-04-19T08:38:08;15.85;;;10.45;;
27899;SDS011;15243;50.726;7.080;2023-04-19T08:40:37;15.45;;;9.98;;
27899;SDS011;15243;50.726;7.080;2023-04-19T08:43:09;15.30;;;10.15;;
27899;SDS011;15243;50.726;7.080;2023-04-19T08:45:36;16.05;;;10.05;;
27899;SDS011;15243;50.726;7.080;2023-04-19T08:48:04;14.30;;;9.40;;
27899;SDS011;15243;50.726;7.080;2023-04-19T08:50:35;16.58;;;10.23;;
27899;SDS011;15243;50.726;7.080;2023-04-19T08:53:21;15.18;;;10.95;;
27899;SDS011;15243;50.726;7.080;2023-04-19T08:55:51;12.45;;;8.57;;
27899;SDS011;15243;50.726;7.080;2023-04-19T08:58:40;12.13;;;7.38;;
27899;SDS011;15243;50.726;7.080;2023-04-19T09:01:27;9.68;;;6.53;;
27899;SDS011;15243;50.726;7.080;2023-04-19T09:04:02;7.65;;;6.60;;
27899;SDS011;15243;50.726;7.080;2023-04-19T09:06:53;9.00;;;6.97;;
27899;SDS011;15243;50.726;7.080;2023-04-19T09:09:28;10.60;;;7.05;;
27899;SDS011;15243;50.726;7.080;2023-04-19T09:12:15;9.93;;;7.18;;
27899;SDS011;15243;50.726;7.080;2023-04-19T09:14:44;8.95;;;7.05;;
27899;SDS011;15243;50.726;7.080;2023-04-19T09:17:27;8.70;;;6.50;;
27899;SDS011;15243;50.726;7.080;2023-04-19T09:19:55;13.15;;;7.05;;
27899;SDS011;15243;50.726;7.080;2023-04-19T09:22:22;10.02;;;7.30;;
27899;SDS011;15243;50.726;7.080;2023-04-19T09:24:49;12.60;;;7.00;;
27899;SDS011;15243;50.726;7.080;2023-04-19T09:27:28;8.80;;;6.03;;
27899;SDS011;15243;50.726;7.080;2023-04-19T09:30:00;7.82;;;6.18;;
27899;SDS011;15243;50.726;7.080;2023-04-19T09:32:40;9.07;;;5.97;;
27899;SDS011;15243;50.726;7.080;2023-04-19T09:35:14;9.77;;;6.47;;
27899;SDS011;15243;50.726;7.080;2023-04-19T09:37:41;10.57;;;6.82;;
27899;SDS011;15243;50.726;7.080;2023-04-19T09:40:24;9.80;;;6.00;;
27899;SDS011;15243;50.726;7.080;2023-04-19T09:42:53;11.20;;;6.68;;
27899;SDS011;15243;50.726;7.080;2023-04-19T09:45:44;9.90;;;6.25;;
27899;SDS011;15243;50.726;7.080;2023-04-19T09:48:12;10.05;;;6.60;;
27899;SDS011;15243;50.726;7.080;2023-04-19T09:53:39;6.32;;;4.95;;
27899;SDS011;15243;50.726;7.080;2023-04-19T09:56:09;7.78;;;3.95;;
27899;SDS011;15243;50.726;7.080;2023-04-19T09:58:38;6.05;;;3.75;;
27899;SDS011;15243;50.726;7.080;2023-04-19T10:01:16;7.28;;;3.90;;
27899;SDS011;15243;50.726;7.080;2023-04-19T10:03:48;6.43;;;3.95;;
27899;SDS011;15243;50.726;7.080;2023-04-19T10:06:18;8.27;;;4.13;;
27899;SDS011;15243;50.726;7.080;2023-04-19T10:08:49;7.20;;;3.80;;
27899;SDS011;15243;50.726;7.080;2023-04-19T10:11:21;9.70;;;4.45;;
27899;SDS011;15243;50.726;7.080;2023-04-19T10:13:51;5.22;;;3.75;;
27899;SDS011;15243;50.726;7.080;2023-04-19T10:16:22;6.97;;;5.22;;
27899;SDS011;15243;50.726;7.080;2023-04-19T10:18:50;6.25;;;4.22;;
27899;SDS011;15243;50.726;7.080;2023-04-19T10:21:18;7.60;;;4.85;;
27899;SDS011;15243;50.726;7.080;2023-04-19T10:23:46;6.03;;;4.22;;
27899;SDS011;15243;50.726;7.080;2023-04-19T10:26:13;6.95;;;3.83;;
27899;SDS011;15243;50.726;7.080;2023-04-19T10:28:40;10.85;;;4.32;;
27899;SDS011;15243;50.726;7.080;2023-04-19T10:31:10;6.43;;;4.38;;
27899;SDS011;15243;50.726;7.080;2023-04-19T10:33:58;10.23;;;6.97;;
27899;SDS011;15243;50.726;7.080;2023-04-19T10:36:26;6.43;;;4.15;;
27899;SDS011;15243;50.726;7.080;2023-04-19T10:38:54;5.45;;;3.90;;
27899;SDS011;15243;50.726;7.080;2023-04-19T10:41:21;9.95;;;4.18;;
27899;SDS011;15243;50.726;7.080;2023-04-19T10:51:32;8.35;;;4.10;;
27899;SDS011;15243;50.726;7.080;2023-04-19T11:01:48;6.60;;;4.63;;
27899;SDS011;15243;50.726;7.080;2023-04-19T11:07:35;5.47;;;4.50;;
27899;SDS011;15243;50.726;7.080;2023-04-19T11:10:02;6.60;;;3.92;;
27899;SDS011;15243;50.726;7.080;2023-04-19T11:12:30;7.05;;;4.20;;
27899;SDS011;15243;50.726;7.080;2023-04-19T11:14:57;5.97;;;4.03;;
27899;SDS011;15243;50.726;7.080;2023-04-19T11:17:27;8.07;;;4.90;;
27899;SDS011;15243;50.726;7.080;2023-04-19T11:22:31;9.18;;;5.13;;
27899;SDS011;15243;50.726;7.080;2023-04-19T11:25:18;7.40;;;3.72;;
27899;SDS011;15243;50.726;7.080;2023-04-19T11:27:48;8.00;;;4.43;;
27899;SDS011;15243;50.726;7.080;2023-04-19T11:30:18;7.05;;;4.45;;
27899;SDS011;15243;50.726;7.080;2023-04-19T11:32:49;6.60;;;4.18;;
27899;SDS011;15243;50.726;7.080;2023-04-19T11:37:50;5.78;;;3.97;;
27899;SDS011;15243;50.726;7.080;2023-04-19T11:40:19;6.78;;;4.03;;
27899;SDS011;15243;50.726;7.080;2023-04-19T11:42:58;5.65;;;3.95;;
27899;SDS011;15243;50.726;7.080;2023-04-19T11:45:27;4.93;;;3.45;;
27899;SDS011;15243;50.726;7.080;2023-04-19T11:48:01;6.63;;;4.20;;
27899;SDS011;15243;50.726;7.080;2023-04-19T11:50:37;4.82;;;3.70;;
27899;SDS011;15243;50.726;7.080;2023-04-19T11:53:21;5.75;;;3.75;;
27899;SDS011;15243;50.726;7.080;2023-04-19T11:56:11;6.25;;;3.47;;
27899;SDS011;15243;50.726;7.080;2023-04-19T11:58:38;6.05;;;4.03;;
27899;SDS011;15243;50.726;7.080;2023-04-19T12:01:19;7.50;;;3.38;;
27899;SDS011;15243;50.726;7.080;2023-04-19T12:03:48;7.55;;;4.07;;
27899;SDS011;15243;50.726;7.080;2023-04-19T12:06:20;5.88;;;3.50;;
27899;SDS011;15243;50.726;7.080;2023-04-19T12:08:49;5.85;;;3.08;;
27899;SDS011;15243;50.726;7.080;2023-04-19T12:11:18;4.65;;;3.33;;
27899;SDS011;15243;50.726;7.080;2023-04-19T12:16:35;5.43;;;3.08;;
27899;SDS011;15243;50.726;7.080;2023-04-19T12:19:12;6.38;;;3.70;;
27899;SDS011;15243;50.726;7.080;2023-04-19T12:21:45;4.70;;;2.80;;
27899;SDS011;15243;50.726;7.080;2023-04-19T12:24:15;3.75;;;2.80;;
27899;SDS011;15243;50.726;7.080;2023-04-19T12:26:53;11.65;;;2.80;;
27899;SDS011;15243;50.726;7.080;2023-04-19T12:31:54;4.85;;;2.10;;
27899;SDS011;15243;50.726;7.080;2023-04-19T12:34:21;4.28;;;1.90;;
27899;SDS011;15243;50.726;7.080;2023-04-19T12:36:48;3.40;;;2.17;;
27899;SDS011;15243;50.726;7.080;2023-04-19T12:39:15;6.60;;;2.13;;
27899;SDS011;15243;50.726;7.080;2023-04-19T12:41:43;4.10;;;1.88;;
27899;SDS011;15243;50.726;7.080;2023-04-19T12:44:10;7.93;;;2.00;;
27899;SDS011;15243;50.726;7.080;2023-04-19T12:46:37;4.07;;;2.00;;
27899;SDS011;15243;50.726;7.080;2023-04-19T12:49:04;4.50;;;2.17;;
27899;SDS011;15243;50.726;7.080;2023-04-19T12:51:31;3.47;;;2.20;;
27899;SDS011;15243;50.726;7.080;2023-04-19T12:53:59;2.67;;;2.15;;
27899;SDS011;15243;50.726;7.080;2023-04-19T12:56:27;2.45;;;1.77;;
27899;SDS011;15243;50.726;7.080;2023-04-19T12:58:54;2.88;;;2.13;;
27899;SDS011;15243;50.726;7.080;2023-04-19T13:01:21;3.55;;;1.95;;
27899;SDS011;15243;50.726;7.080;2023-04-19T13:03:49;4.18;;;1.80;;
27899;SDS011;15243;50.726;7.080;2023-04-19T13:06:16;2.58;;;1.60;;
27899;SDS011;15243;50.726;7.080;2023-04-19T13:08:43;11.85;;;2.10;;
27899;SDS011;15243;50.726;7.080;2023-04-19T13:11:13;6.93;;;1.88;;
27899;SDS011;15243;50.726;7.080;2023-04-19T13:13:43;4.18;;;1.80;;
27899;SDS011;15243;50.726;7.080;2023-04-19T13:16:09;3.55;;;1.88;;
27899;SDS011;15243;50.726;7.080;2023-04-19T13:18:36;5.10;;;1.90;;
27899;SDS011;15243;50.726;7.080;2023-04-19T13:21:04;3.20;;;1.95;;
27899;SDS011;15243;50.726;7.080;2023-04-19T13:23:33;10.45;;;1.77;;
27899;SDS011;15243;50.726;7.080;2023-04-19T13:26:00;6.80;;;1.70;;
27899;SDS011;15243;50.726;7.080;2023-04-19T13:28:27;2.55;;;1.70;;
27899;SDS011;15243;50.726;7.080;2023-04-19T13:30:55;6.82;;;1.90;;
27899;SDS011;15243;50.726;7.080;2023-04-19T13:33:23;3.83;;;1.70;;
27899;SDS011;15243;50.726;7.080;2023-04-19T13:35:52;2.75;;;1.58;;
27899;SDS011;15243;50.726;7.080;2023-04-19T13:38:19;4.18;;;1.60;;
27899;SDS011;15243;50.726;7.080;2023-04-19T13:40:46;4.82;;;1.80;;
27899;SDS011;15243;50.726;7.080;2023-04-19T13:43:13;1.85;;;1.60;;
27899;SDS011;15243;50.726;7.080;2023-04-19T13:45:40;5.88;;;1.65;;
27899;SDS011;15243;50.726;7.080;2023-04-19T13:48:08;3.42;;;1.48;;
27899;SDS011;15243;50.726;7.080;2023-04-19T13:50:34;1.50;;;1.40;;
27899;SDS011;15243;50.726;7.080;2023-04-19T13:53:04;3.40;;;1.60;;
27899;SDS011;15243;50.726;7.080;2023-04-19T13:55:38;2.35;;;1.60;;
27899;SDS011;15243;50.726;7.080;2023-04-19T13:58:06;3.47;;;1.90;;
27899;SDS011;15243;50.726;7.080;2023-04-19T14:00:33;5.68;;;1.58;;
27899;SDS011;15243;50.726;7.080;2023-04-19T14:03:00;3.20;;;1.60;;
27899;SDS011;15243;50.726;7.080;2023-04-19T14:05:28;1.55;;;1.45;;
27899;SDS011;15243;50.726;7.080;2023-04-19T14:07:56;3.13;;;1.58;;
27899;SDS011;15243;50.726;7.080;2023-04-19T14:10:23;2.15;;;1.52;;
27899;SDS011;15243;50.726;7.080;2023-04-19T14:12:50;2.20;;;1.65;;
27899;SDS011;15243;50.726;7.080;2023-04-19T14:15:18;4.32;;;1.80;;
27899;SDS011;15243;50.726;7.080;2023-04-19T14:17:46;2.65;;;2.00;;
27899;SDS011;15243;50.726;7.080;2023-04-19T14:20:13;4.03;;;1.80;;
27899;SDS011;15243;50.726;7.080;2023-04-19T14:22:42;4.95;;;1.90;;
27899;SDS011;15243;50.726;7.080;2023-04-19T14:25:12;3.60;;;1.80;;
27899;SDS011;15243;50.726;7.080;2023-04-19T14:27:40;3.13;;;1.77;;
27899;SDS011;15243;50.726;7.080;2023-04-19T14:30:07;2.45;;;1.70;;
27899;SDS011;15243;50.726;7.080;2023-04-19T14:32:35;7.80;;;2.00;;
27899;SDS011;15243;50.726;7.080;2023-04-19T14:35:02;3.45;;;1.95;;
27899;SDS011;15243;50.726;7.080;2023-04-19T14:37:30;8.35;;;1.85;;
27899;SDS011;15243;50.726;7.080;2023-04-19T14:39:57;8.13;;;2.00;;
27899;SDS011;15243;50.726;7.080;2023-04-19T14:42:24;2.60;;;1.85;;
27899;SDS011;15243;50.726;7.080;2023-04-19T14:44:51;3.20;;;1.80;;
27899;SDS011;15243;50.726;7.080;2023-04-19T14:47:19;2.28;;;1.90;;
27899;SDS011;15243;50.726;7.080;2023-04-19T14:49:47;4.05;;;2.08;;
27899;SDS011;15243;50.726;7.080;2023-04-19T14:52:14;2.47;;;1.90;;
27899;SDS011;15243;50.726;7.080;2023-04-19T14:54:41;2.42;;;2.00;;
27899;SDS011;15243;50.726;7.080;2023-04-19T14:57:16;6.22;;;2.10;;
27899;SDS011;15243;50.726;7.080;2023-04-19T14:59:43;5.20;;;2.10;;
27899;SDS011;15243;50.726;7.080;2023-04-19T15:02:11;3.75;;;2.03;;
27899;SDS011;15243;50.726;7.080;2023-04-19T15:04:39;2.35;;;1.80;;
27899;SDS011;15243;50.726;7.080;2023-04-19T15:07:08;2.85;;;1.90;;
27899;SDS011;15243;50.726;7.080;2023-04-19T15:09:36;8.15;;;2.05;;
27899;SDS011;15243;50.726;7.080;2023-04-19T15:12:04;7.03;;;2.20;;
27899;SDS011;15243;50.726;7.080;2023-04-19T15:14:31;4.28;;;2.00;;
27899;SDS011;15243;50.726;7.080;2023-04-19T15:16:58;5.65;;;1.92;;
27899;SDS011;15243;50.726;7.080;2023-04-19T15:19:25;6.30;;;2.25;;
27899;SDS011;15243;50.726;7.080;2023-04-19T15:21:52;4.88;;;2.20;;
27899;SDS011;15243;50.726;7.080;2023-04-19T15:24:18;4.88;;;1.98;;